sensor_id;sensor_type;location;lat;lon;timestamp;temperature;humidity
16321;DHT22;8269;50.990;4.494;2023-05-07T00:01:41;15.90;99.90
16321;DHT22;8269;50.990;4.494;2023-05-07T00:04:07;15.90;99.90
16321;DHT22;8269;50.990;4.494;2023-05-07T00:06:33;15.90;99.90
16321;DHT22;8269;50.990;4.494;2023-05-07T00:08:59;15.90;99.90
16321;DHT22;8269;50.990;4.494;2023-05-07T00:11:26;15.90;99.90
16321;DHT22;8269;50.990;4.494;2023-05-07T00:13:52;15.90;99.90
16321;DHT22;8269;50.990;4.494;2023-05-07T00:16:18;15.90;99.90
16321;DHT22;8269;50.990;4.494;2023-05-07T00:18:43;15.90;99.90
16321;DHT22;8269;50.990;4.494;2023-05-07T00:21:09;15.90;99.90
16321;DHT22;8269;50.990;4.494;2023-05-07T00:23:35;15.90;99.90
16321;DHT22;8269;50.990;4.494;2023-05-07T00:26:00;15.90;99.90
16321;DHT22;8269;50.990;4.494;2023-05-07T00:28:26;15.90;99.90
16321;DHT22;8269;50.990;4.494;2023-05-07T00:30:52;15.90;99.90
16321;DHT22;8269;50.990;4.494;2023-05-07T00:33:18;15.90;99.90
16321;DHT22;8269;50.990;4.494;2023-05-07T00:35:45;15.90;99.90
16321;DHT22;8269;50.990;4.494;2023-05-07T00:38:11;15.90;99.90
16321;DHT22;8269;50.990;4.494;2023-05-07T00:40:36;15.90;99.90
16321;DHT22;8269;50.990;4.494;2023-05-07T00:43:02;15.90;99.90
16321;DHT22;8269;50.990;4.494;2023-05-07T00:45:28;15.90;99.90
16321;DHT22;8269;50.990;4.494;2023-05-07T00:47:59;15.90;99.90
16321;DHT22;8269;50.990;4.494;2023-05-07T00:50:26;15.80;99.90
16321;DHT22;8269;50.990;4.494;2023-05-07T00:52:52;15.80;99.90
16321;DHT22;8269;50.990;4.494;2023-05-07T00:55:18;15.80;99.90
16321;DHT22;8269;50.990;4.494;2023-05-07T00:57:44;15.80;99.90
16321;DHT22;8269;50.990;4.494;2023-05-07T01:00:10;15.80;99.90
16321;DHT22;8269;50.990;4.494;2023-05-07T01:02:41;15.80;99.90
16321;DHT22;8269;50.990;4.494;2023-05-07T01:05:10;15.80;99.90
16321;DHT22;8269;50.990;4.494;2023-05-07T01:07:38;15.70;99.90
16321;DHT22;8269;50.990;4.494;2023-05-07T01:10:06;15.80;99.90
16321;DHT22;8269;50.990;4.494;2023-05-07T01:12:33;15.70;99.90
16321;DHT22;8269;50.990;4.494;2023-05-07T01:15:00;15.80;99.90
16321;DHT22;8269;50.990;4.494;2023-05-07T01:17:26;15.70;99.90
16321;DHT22;8269;50.990;4.494;2023-05-07T01:19:52;15.70;99.90
16321;DHT22;8269;50.990;4.494;2023-05-07T01:22:31;15.60;99.90
16321;DHT22;8269;50.990;4.494;2023-05-07T01:24:58;15.50;99.90
16321;DHT22;8269;50.990;4.494;2023-05-07T01:27:25;15.40;99.90
16321;DHT22;8269;50.990;4.494;2023-05-07T01:29:51;15.40;99.90
16321;DHT22;8269;50.990;4.494;2023-05-07T01:32:19;15.40;99.90
16321;DHT22;8269;50.990;4.494;2023-05-07T01:34:48;15.40;99.90
16321;DHT22;8269;50.990;4.494;2023-05-07T01:37:15;15.30;99.90
16321;DHT22;8269;50.990;4.494;2023-05-07T01:39:42;15.30;99.90
16321;DHT22;8269;50.990;4.494;2023-05-07T01:42:08;15.30;99.90
16321;DHT22;8269;50.990;4.494;2023-05-07T01:44:34;15.40;99.90
16321;DHT22;8269;50.990;4.494;2023-05-07T01:47:01;15.40;99.90
16321;DHT22;8269;50.990;4.494;2023-05-07T01:49:28;15.40;99.90
16321;DHT22;8269;50.990;4.494;2023-05-07T01:51:53;15.40;99.90
16321;DHT22;8269;50.990;4.494;2023-05-07T01:54:19;15.50;99.90
16321;DHT22;8269;50.990;4.494;2023-05-07T01:56:46;15.50;99.90
16321;DHT22;8269;50.990;4.494;2023-05-07T01:59:13;15.50;99.90
16321;DHT22;8269;50.990;4.494;2023-05-07T02:01:39;15.40;99.90
16321;DHT22;8269;50.990;4.494;2023-05-07T02:04:04;15.40;99.90
16321;DHT22;8269;50.990;4.494;2023-05-07T02:06:30;15.30;99.90
16321;DHT22;8269;50.990;4.494;2023-05-07T02:08:56;15.30;99.90
16321;DHT22;8269;50.990;4.494;2023-05-07T02:11:22;15.30;99.90
16321;DHT22;8269;50.990;4.494;2023-05-07T02:13:47;15.30;99.90
16321;DHT22;8269;50.990;4.494;2023-05-07T02:16:13;15.40;99.90
16321;DHT22;8269;50.990;4.494;2023-05-07T02:18:39;15.30;99.90
16321;DHT22;8269;50.990;4.494;2023-05-07T02:21:05;15.30;99.90
16321;DHT22;8269;50.990;4.494;2023-05-07T02:23:31;15.30;99.90
16321;DHT22;8269;50.990;4.494;2023-05-07T02:25:56;15.30;99.90
16321;DHT22;8269;50.990;4.494;2023-05-07T02:28:22;15.20;99.90
16321;DHT22;8269;50.990;4.494;2023-05-07T02:30:48;15.20;99.90
16321;DHT22;8269;50.990;4.494;2023-05-07T02:33:13;15.20;99.90
16321;DHT22;8269;50.990;4.494;2023-05-07T02:35:39;15.10;99.90
16321;DHT22;8269;50.990;4.494;2023-05-07T02:38:05;15.10;99.90
16321;DHT22;8269;50.990;4.494;2023-05-07T02:40:31;15.10;99.90
16321;DHT22;8269;50.990;4.494;2023-05-07T02:42:59;15.10;99.90
16321;DHT22;8269;50.990;4.494;2023-05-07T02:45:25;15.20;99.90
16321;DHT22;8269;50.990;4.494;2023-05-07T02:47:50;15.20;99.90
16321;DHT22;8269;50.990;4.494;2023-05-07T02:50:16;15.20;99.90
16321;DHT22;8269;50.990;4.494;2023-05-07T02:52:42;15.10;99.90
16321;DHT22;8269;50.990;4.494;2023-05-07T02:55:08;15.20;99.90
16321;DHT22;8269;50.990;4.494;2023-05-07T02:57:33;15.20;99.90
16321;DHT22;8269;50.990;4.494;2023-05-07T02:59:59;15.10;99.90
16321;DHT22;8269;50.990;4.494;2023-05-07T03:02:35;15.00;99.90
16321;DHT22;8269;50.990;4.494;2023-05-07T03:05:01;14.90;99.90
16321;DHT22;8269;50.990;4.494;2023-05-07T03:07:27;14.80;99.90
16321;DHT22;8269;50.990;4.494;2023-05-07T03:09:52;14.80;99.90
16321;DHT22;8269;50.990;4.494;2023-05-07T03:12:19;14.80;99.90
16321;DHT22;8269;50.990;4.494;2023-05-07T03:14:44;14.80;99.90
16321;DHT22;8269;50.990;4.494;2023-05-07T03:17:10;14.70;99.90
16321;DHT22;8269;50.990;4.494;2023-05-07T03:19:36;14.70;99.90
16321;DHT22;8269;50.990;4.494;2023-05-07T03:22:01;14.60;99.90
16321;DHT22;8269;50.990;4.494;2023-05-07T03:24:27;14.70;99.90
16321;DHT22;8269;50.990;4.494;2023-05-07T03:26:52;14.70;99.90
16321;DHT22;8269;50.990;4.494;2023-05-07T03:29:18;14.80;99.90
16321;DHT22;8269;50.990;4.494;2023-05-07T03:31:44;14.80;99.90
16321;DHT22;8269;50.990;4.494;2023-05-07T03:34:10;14.90;99.90
16321;DHT22;8269;50.990;4.494;2023-05-07T03:36:36;14.90;99.90
16321;DHT22;8269;50.990;4.494;2023-05-07T03:39:01;14.90;99.90
16321;DHT22;8269;50.990;4.494;2023-05-07T03:41:28;15.00;99.90
16321;DHT22;8269;50.990;4.494;2023-05-07T03:43:55;15.00;99.90
16321;DHT22;8269;50.990;4.494;2023-05-07T03:46:20;15.00;99.90
16321;DHT22;8269;50.990;4.494;2023-05-07T03:48:46;15.00;99.90
16321;DHT22;8269;50.990;4.494;2023-05-07T03:51:12;15.10;99.90
16321;DHT22;8269;50.990;4.494;2023-05-07T03:53:37;15.10;99.90
16321;DHT22;8269;50.990;4.494;2023-05-07T03:56:03;15.10;99.90
16321;DHT22;8269;50.990;4.494;2023-05-07T03:58:29;15.00;99.90
16321;DHT22;8269;50.990;4.494;2023-05-07T04:00:54;15.00;99.90
16321;DHT22;8269;50.990;4.494;2023-05-07T04:03:20;15.00;99.90
16321;DHT22;8269;50.990;4.494;2023-05-07T04:05:46;15.00;99.90
16321;DHT22;8269;50.990;4.494;2023-05-07T04:08:12;15.00;99.90
16321;DHT22;8269;50.990;4.494;2023-05-07T04:10:38;15.00;99.90
16321;DHT22;8269;50.990;4.494;2023-05-07T04:13:03;15.10;99.90
16321;DHT22;8269;50.990;4.494;2023-05-07T04:15:29;15.00;99.90
16321;DHT22;8269;50.990;4.494;2023-05-07T04:17:54;15.00;99.90
16321;DHT22;8269;50.990;4.494;2023-05-07T04:20:20;15.00;99.90
16321;DHT22;8269;50.990;4.494;2023-05-07T04:22:46;15.00;99.90
16321;DHT22;8269;50.990;4.494;2023-05-07T04:25:11;15.00;99.90
16321;DHT22;8269;50.990;4.494;2023-05-07T04:27:37;14.90;99.90
16321;DHT22;8269;50.990;4.494;2023-05-07T04:30:03;14.90;99.90
16321;DHT22;8269;50.990;4.494;2023-05-07T04:32:29;14.90;99.90
16321;DHT22;8269;50.990;4.494;2023-05-07T04:34:56;14.90;99.90
16321;DHT22;8269;50.990;4.494;2023-05-07T04:37:25;14.90;99.90
16321;DHT22;8269;50.990;4.494;2023-05-07T04:39:51;14.90;99.90
16321;DHT22;8269;50.990;4.494;2023-05-07T04:42:18;14.90;99.90
16321;DHT22;8269;50.990;4.494;2023-05-07T04:44:44;15.00;99.90
16321;DHT22;8269;50.990;4.494;2023-05-07T04:47:11;14.90;99.90
16321;DHT22;8269;50.990;4.494;2023-05-07T04:49:38;15.00;99.90
16321;DHT22;8269;50.990;4.494;2023-05-07T04:52:04;15.00;99.90
16321;DHT22;8269;50.990;4.494;2023-05-07T04:54:29;15.00;99.90
16321;DHT22;8269;50.990;4.494;2023-05-07T04:56:55;14.90;99.90
16321;DHT22;8269;50.990;4.494;2023-05-07T04:59:21;15.00;99.90
16321;DHT22;8269;50.990;4.494;2023-05-07T05:01:47;14.90;99.90
16321;DHT22;8269;50.990;4.494;2023-05-07T05:04:12;14.80;99.90
16321;DHT22;8269;50.990;4.494;2023-05-07T05:06:38;14.90;99.90
16321;DHT22;8269;50.990;4.494;2023-05-07T05:09:04;15.00;99.90
16321;DHT22;8269;50.990;4.494;2023-05-07T05:11:31;15.00;99.90
16321;DHT22;8269;50.990;4.494;2023-05-07T05:13:56;14.90;99.90
16321;DHT22;8269;50.990;4.494;2023-05-07T05:16:22;14.90;99.90
16321;DHT22;8269;50.990;4.494;2023-05-07T05:18:48;15.00;99.90
16321;DHT22;8269;50.990;4.494;2023-05-07T05:21:13;15.10;99.90
16321;DHT22;8269;50.990;4.494;2023-05-07T05:23:39;15.20;99.90
16321;DHT22;8269;50.990;4.494;2023-05-07T05:26:05;15.30;99.90
16321;DHT22;8269;50.990;4.494;2023-05-07T05:28:30;15.40;99.90
16321;DHT22;8269;50.990;4.494;2023-05-07T05:30:56;15.30;99.90
16321;DHT22;8269;50.990;4.494;2023-05-07T05:33:22;15.40;99.90
16321;DHT22;8269;50.990;4.494;2023-05-07T05:35:47;15.50;99.90
16321;DHT22;8269;50.990;4.494;2023-05-07T05:38:14;15.60;99.90
16321;DHT22;8269;50.990;4.494;2023-05-07T05:40:43;15.60;99.90
16321;DHT22;8269;50.990;4.494;2023-05-07T05:43:09;15.70;99.90
16321;DHT22;8269;50.990;4.494;2023-05-07T05:45:35;15.70;99.90
16321;DHT22;8269;50.990;4.494;2023-05-07T05:48:00;15.70;99.90
16321;DHT22;8269;50.990;4.494;2023-05-07T05:50:26;15.80;99.90
16321;DHT22;8269;50.990;4.494;2023-05-07T05:52:52;15.90;99.90
16321;DHT22;8269;50.990;4.494;2023-05-07T05:55:18;15.80;99.90
16321;DHT22;8269;50.990;4.494;2023-05-07T05:57:43;15.80;99.90
16321;DHT22;8269;50.990;4.494;2023-05-07T06:00:10;15.90;99.90
16321;DHT22;8269;50.990;4.494;2023-05-07T06:02:36;15.90;99.90
16321;DHT22;8269;50.990;4.494;2023-05-07T06:05:01;16.00;99.90
16321;DHT22;8269;50.990;4.494;2023-05-07T06:07:27;16.00;99.90
16321;DHT22;8269;50.990;4.494;2023-05-07T06:09:53;16.00;99.90
16321;DHT22;8269;50.990;4.494;2023-05-07T06:12:18;16.00;99.90
16321;DHT22;8269;50.990;4.494;2023-05-07T06:14:44;16.00;99.90
16321;DHT22;8269;50.990;4.494;2023-05-07T06:17:09;16.00;99.90
16321;DHT22;8269;50.990;4.494;2023-05-07T06:19:35;16.00;99.90
16321;DHT22;8269;50.990;4.494;2023-05-07T06:22:01;16.00;99.90
16321;DHT22;8269;50.990;4.494;2023-05-07T06:24:28;16.00;99.90
16321;DHT22;8269;50.990;4.494;2023-05-07T06:26:53;16.10;99.90
16321;DHT22;8269;50.990;4.494;2023-05-07T06:29:19;16.10;99.90
16321;DHT22;8269;50.990;4.494;2023-05-07T06:31:45;16.00;99.90
16321;DHT22;8269;50.990;4.494;2023-05-07T06:34:10;15.80;99.90
16321;DHT22;8269;50.990;4.494;2023-05-07T06:36:40;15.70;99.90
16321;DHT22;8269;50.990;4.494;2023-05-07T06:39:06;15.60;99.90
16321;DHT22;8269;50.990;4.494;2023-05-07T06:41:31;15.70;99.90
16321;DHT22;8269;50.990;4.494;2023-05-07T06:43:57;15.70;99.90
16321;DHT22;8269;50.990;4.494;2023-05-07T06:46:24;15.70;99.90
16321;DHT22;8269;50.990;4.494;2023-05-07T06:48:50;15.70;99.90
16321;DHT22;8269;50.990;4.494;2023-05-07T06:51:16;15.70;99.90
16321;DHT22;8269;50.990;4.494;2023-05-07T06:53:41;15.80;99.90
16321;DHT22;8269;50.990;4.494;2023-05-07T06:56:07;15.90;99.90
16321;DHT22;8269;50.990;4.494;2023-05-07T06:58:33;16.00;99.90
16321;DHT22;8269;50.990;4.494;2023-05-07T07:00:59;16.00;99.90
16321;DHT22;8269;50.990;4.494;2023-05-07T07:03:25;16.10;99.90
16321;DHT22;8269;50.990;4.494;2023-05-07T07:05:54;16.20;99.90
16321;DHT22;8269;50.990;4.494;2023-05-07T07:08:21;16.20;99.90
16321;DHT22;8269;50.990;4.494;2023-05-07T07:10:47;16.30;99.90
16321;DHT22;8269;50.990;4.494;2023-05-07T07:13:13;16.30;99.90
16321;DHT22;8269;50.990;4.494;2023-05-07T07:15:41;16.30;99.90
16321;DHT22;8269;50.990;4.494;2023-05-07T07:18:07;16.30;99.90
16321;DHT22;8269;50.990;4.494;2023-05-07T07:20:32;16.40;99.90
16321;DHT22;8269;50.990;4.494;2023-05-07T07:22:58;16.50;99.90
16321;DHT22;8269;50.990;4.494;2023-05-07T07:25:25;16.40;99.90
16321;DHT22;8269;50.990;4.494;2023-05-07T07:27:50;16.40;99.90
16321;DHT22;8269;50.990;4.494;2023-05-07T07:30:16;16.40;99.90
16321;DHT22;8269;50.990;4.494;2023-05-07T07:32:41;16.40;99.90
16321;DHT22;8269;50.990;4.494;2023-05-07T07:35:08;16.50;99.90
16321;DHT22;8269;50.990;4.494;2023-05-07T07:37:34;16.40;99.90
16321;DHT22;8269;50.990;4.494;2023-05-07T07:39:59;16.40;99.90
16321;DHT22;8269;50.990;4.494;2023-05-07T07:42:25;16.40;99.90
16321;DHT22;8269;50.990;4.494;2023-05-07T07:44:51;16.50;99.90
16321;DHT22;8269;50.990;4.494;2023-05-07T07:47:16;16.50;99.90
16321;DHT22;8269;50.990;4.494;2023-05-07T07:49:42;16.50;99.90
16321;DHT22;8269;50.990;4.494;2023-05-07T07:52:08;16.50;99.90
16321;DHT22;8269;50.990;4.494;2023-05-07T07:54:33;16.50;99.90
16321;DHT22;8269;50.990;4.494;2023-05-07T07:56:59;16.40;99.90
16321;DHT22;8269;50.990;4.494;2023-05-07T07:59:25;16.50;99.90
16321;DHT22;8269;50.990;4.494;2023-05-07T08:01:50;16.50;99.90
16321;DHT22;8269;50.990;4.494;2023-05-07T08:04:17;16.50;99.90
16321;DHT22;8269;50.990;4.494;2023-05-07T08:06:43;16.40;99.90
16321;DHT22;8269;50.990;4.494;2023-05-07T08:09:09;16.50;99.90
16321;DHT22;8269;50.990;4.494;2023-05-07T08:11:34;16.60;99.90
16321;DHT22;8269;50.990;4.494;2023-05-07T08:14:00;16.70;99.90
16321;DHT22;8269;50.990;4.494;2023-05-07T08:16:26;16.50;99.90
16321;DHT22;8269;50.990;4.494;2023-05-07T08:18:52;16.40;99.90
16321;DHT22;8269;50.990;4.494;2023-05-07T08:21:18;16.40;99.90
16321;DHT22;8269;50.990;4.494;2023-05-07T08:23:43;16.40;99.90
16321;DHT22;8269;50.990;4.494;2023-05-07T08:26:09;16.50;99.90
16321;DHT22;8269;50.990;4.494;2023-05-07T08:28:35;16.60;99.90
16321;DHT22;8269;50.990;4.494;2023-05-07T08:31:01;16.70;99.90
16321;DHT22;8269;50.990;4.494;2023-05-07T08:33:27;16.70;99.90
16321;DHT22;8269;50.990;4.494;2023-05-07T08:35:53;16.80;99.90
16321;DHT22;8269;50.990;4.494;2023-05-07T08:38:18;16.80;99.90
16321;DHT22;8269;50.990;4.494;2023-05-07T08:40:44;16.70;99.90
16321;DHT22;8269;50.990;4.494;2023-05-07T08:43:12;16.80;99.90
16321;DHT22;8269;50.990;4.494;2023-05-07T08:45:39;16.90;99.90
16321;DHT22;8269;50.990;4.494;2023-05-07T08:48:10;17.00;99.90
16321;DHT22;8269;50.990;4.494;2023-05-07T08:50:39;17.10;99.90
16321;DHT22;8269;50.990;4.494;2023-05-07T08:53:05;17.10;99.90
16321;DHT22;8269;50.990;4.494;2023-05-07T08:55:31;17.10;99.90
16321;DHT22;8269;50.990;4.494;2023-05-07T08:57:58;17.10;99.90
16321;DHT22;8269;50.990;4.494;2023-05-07T09:00:24;17.10;99.90
16321;DHT22;8269;50.990;4.494;2023-05-07T09:02:50;17.10;99.90
16321;DHT22;8269;50.990;4.494;2023-05-07T09:05:16;17.00;99.90
16321;DHT22;8269;50.990;4.494;2023-05-07T09:07:42;17.00;99.90
16321;DHT22;8269;50.990;4.494;2023-05-07T09:10:08;17.00;99.90
16321;DHT22;8269;50.990;4.494;2023-05-07T09:12:33;17.00;99.90
16321;DHT22;8269;50.990;4.494;2023-05-07T09:15:01;16.90;99.90
16321;DHT22;8269;50.990;4.494;2023-05-07T09:17:28;16.90;99.90
16321;DHT22;8269;50.990;4.494;2023-05-07T09:19:54;16.90;99.90
16321;DHT22;8269;50.990;4.494;2023-05-07T09:22:19;16.90;99.90
16321;DHT22;8269;50.990;4.494;2023-05-07T09:24:50;17.00;99.90
16321;DHT22;8269;50.990;4.494;2023-05-07T09:27:17;17.10;99.90
16321;DHT22;8269;50.990;4.494;2023-05-07T09:29:44;17.10;99.90
16321;DHT22;8269;50.990;4.494;2023-05-07T09:32:10;17.10;99.90
16321;DHT22;8269;50.990;4.494;2023-05-07T09:34:36;17.00;99.90
16321;DHT22;8269;50.990;4.494;2023-05-07T09:37:02;17.10;99.90
16321;DHT22;8269;50.990;4.494;2023-05-07T09:39:48;17.10;99.90
16321;DHT22;8269;50.990;4.494;2023-05-07T09:42:22;17.10;99.90
16321;DHT22;8269;50.990;4.494;2023-05-07T09:44:48;17.10;99.90
16321;DHT22;8269;50.990;4.494;2023-05-07T09:47:19;17.00;99.90
16321;DHT22;8269;50.990;4.494;2023-05-07T09:49:48;16.90;99.90
16321;DHT22;8269;50.990;4.494;2023-05-07T09:52:14;17.00;99.90
16321;DHT22;8269;50.990;4.494;2023-05-07T09:54:40;17.00;99.90
16321;DHT22;8269;50.990;4.494;2023-05-07T09:57:10;17.10;99.90
16321;DHT22;8269;50.990;4.494;2023-05-07T09:59:37;17.10;99.90
16321;DHT22;8269;50.990;4.494;2023-05-07T10:02:04;17.10;99.90
16321;DHT22;8269;50.990;4.494;2023-05-07T10:04:32;17.00;99.90
16321;DHT22;8269;50.990;4.494;2023-05-07T10:06:59;16.90;99.90
16321;DHT22;8269;50.990;4.494;2023-05-07T10:09:26;16.90;99.90
16321;DHT22;8269;50.990;4.494;2023-05-07T10:11:52;16.90;99.90
16321;DHT22;8269;50.990;4.494;2023-05-07T10:14:22;16.90;99.90
16321;DHT22;8269;50.990;4.494;2023-05-07T10:16:49;16.90;99.90
16321;DHT22;8269;50.990;4.494;2023-05-07T10:19:15;16.90;99.90
16321;DHT22;8269;50.990;4.494;2023-05-07T10:21:52;17.00;99.90
16321;DHT22;8269;50.990;4.494;2023-05-07T10:24:26;17.10;99.90
16321;DHT22;8269;50.990;4.494;2023-05-07T10:26:53;17.00;99.90
16321;DHT22;8269;50.990;4.494;2023-05-07T10:34:45;17.20;99.90
16321;DHT22;8269;50.990;4.494;2023-05-07T10:37:12;17.30;99.90
16321;DHT22;8269;50.990;4.494;2023-05-07T10:39:38;17.40;99.90
16321;DHT22;8269;50.990;4.494;2023-05-07T10:42:11;17.40;99.90
16321;DHT22;8269;50.990;4.494;2023-05-07T10:44:37;17.50;99.90
16321;DHT22;8269;50.990;4.494;2023-05-07T10:47:14;17.40;99.90
16321;DHT22;8269;50.990;4.494;2023-05-07T10:52:16;17.40;99.90
16321;DHT22;8269;50.990;4.494;2023-05-07T10:54:46;17.40;99.90
16321;DHT22;8269;50.990;4.494;2023-05-07T10:59:56;17.50;99.90
16321;DHT22;8269;50.990;4.494;2023-05-07T11:02:21;17.50;99.90
16321;DHT22;8269;50.990;4.494;2023-05-07T11:05:18;17.50;99.90
16321;DHT22;8269;50.990;4.494;2023-05-07T11:07:54;17.60;99.90
16321;DHT22;8269;50.990;4.494;2023-05-07T11:10:19;17.70;99.90
16321;DHT22;8269;50.990;4.494;2023-05-07T11:15:15;17.90;99.90
16321;DHT22;8269;50.990;4.494;2023-05-07T11:17:59;17.80;99.90
16321;DHT22;8269;50.990;4.494;2023-05-07T11:26:04;17.80;99.90
16321;DHT22;8269;50.990;4.494;2023-05-07T11:28:31;17.90;99.90
16321;DHT22;8269;50.990;4.494;2023-05-07T11:30:57;17.90;99.90
16321;DHT22;8269;50.990;4.494;2023-05-07T11:33:23;18.00;99.90
16321;DHT22;8269;50.990;4.494;2023-05-07T11:35:52;18.00;99.90
16321;DHT22;8269;50.990;4.494;2023-05-07T11:38:19;18.00;99.90
16321;DHT22;8269;50.990;4.494;2023-05-07T11:40:51;18.30;99.90
16321;DHT22;8269;50.990;4.494;2023-05-07T11:43:17;18.10;99.90
16321;DHT22;8269;50.990;4.494;2023-05-07T11:45:44;18.20;99.90
16321;DHT22;8269;50.990;4.494;2023-05-07T11:48:12;18.30;99.90
16321;DHT22;8269;50.990;4.494;2023-05-07T11:50:54;18.40;99.90
16321;DHT22;8269;50.990;4.494;2023-05-07T11:53:20;18.40;99.90
16321;DHT22;8269;50.990;4.494;2023-05-07T11:55:55;18.40;99.90
16321;DHT22;8269;50.990;4.494;2023-05-07T11:58:23;18.40;99.90
16321;DHT22;8269;50.990;4.494;2023-05-07T12:00:53;18.50;99.90
16321;DHT22;8269;50.990;4.494;2023-05-07T12:03:21;18.50;99.90
16321;DHT22;8269;50.990;4.494;2023-05-07T12:05:47;18.40;99.90
16321;DHT22;8269;50.990;4.494;2023-05-07T12:08:17;18.60;99.90
16321;DHT22;8269;50.990;4.494;2023-05-07T12:10:44;18.50;99.90
16321;DHT22;8269;50.990;4.494;2023-05-07T12:13:22;18.70;99.90
16321;DHT22;8269;50.990;4.494;2023-05-07T12:15:52;18.80;99.90
16321;DHT22;8269;50.990;4.494;2023-05-07T12:18:18;18.90;99.90
16321;DHT22;8269;50.990;4.494;2023-05-07T12:20:44;19.00;99.90
16321;DHT22;8269;50.990;4.494;2023-05-07T12:23:10;19.00;99.90
16321;DHT22;8269;50.990;4.494;2023-05-07T12:25:39;19.10;99.90
16321;DHT22;8269;50.990;4.494;2023-05-07T12:28:07;19.10;99.90
16321;DHT22;8269;50.990;4.494;2023-05-07T12:30:39;19.00;99.90
16321;DHT22;8269;50.990;4.494;2023-05-07T12:33:05;19.10;99.90
16321;DHT22;8269;50.990;4.494;2023-05-07T12:35:35;19.20;99.90
16321;DHT22;8269;50.990;4.494;2023-05-07T12:38:01;19.30;99.90
16321;DHT22;8269;50.990;4.494;2023-05-07T12:40:46;19.30;99.90
16321;DHT22;8269;50.990;4.494;2023-05-07T12:43:27;19.40;99.90
16321;DHT22;8269;50.990;4.494;2023-05-07T12:45:57;19.50;99.90
16321;DHT22;8269;50.990;4.494;2023-05-07T12:48:25;19.50;99.90
16321;DHT22;8269;50.990;4.494;2023-05-07T12:50:56;19.60;99.90
16321;DHT22;8269;50.990;4.494;2023-05-07T12:53:24;19.60;99.90
16321;DHT22;8269;50.990;4.494;2023-05-07T12:55:56;19.60;99.90
16321;DHT22;8269;50.990;4.494;2023-05-07T12:58:26;19.50;99.90
16321;DHT22;8269;50.990;4.494;2023-05-07T13:00:52;19.50;99.90
16321;DHT22;8269;50.990;4.494;2023-05-07T13:03:37;19.50;99.90
16321;DHT22;8269;50.990;4.494;2023-05-07T13:06:08;19.40;99.90
16321;DHT22;8269;50.990;4.494;2023-05-07T13:08:40;19.50;99.90
16321;DHT22;8269;50.990;4.494;2023-05-07T13:11:09;19.70;99.90
16321;DHT22;8269;50.990;4.494;2023-05-07T13:13:36;19.90;99.90
16321;DHT22;8269;50.990;4.494;2023-05-07T13:16:03;19.90;99.90
16321;DHT22;8269;50.990;4.494;2023-05-07T13:18:32;19.90;99.90
16321;DHT22;8269;50.990;4.494;2023-05-07T13:20:59;19.80;99.90
16321;DHT22;8269;50.990;4.494;2023-05-07T13:23:26;19.80;99.90
16321;DHT22;8269;50.990;4.494;2023-05-07T13:25:51;19.80;99.90
16321;DHT22;8269;50.990;4.494;2023-05-07T13:28:19;19.90;99.90
16321;DHT22;8269;50.990;4.494;2023-05-07T13:30:45;19.90;99.90
16321;DHT22;8269;50.990;4.494;2023-05-07T13:33:11;19.80;99.90
16321;DHT22;8269;50.990;4.494;2023-05-07T13:35:37;19.90;99.90
16321;DHT22;8269;50.990;4.494;2023-05-07T13:38:03;19.80;99.90
16321;DHT22;8269;50.990;4.494;2023-05-07T13:40:29;19.80;99.90
16321;DHT22;8269;50.990;4.494;2023-05-07T13:42:57;19.70;99.90
16321;DHT22;8269;50.990;4.494;2023-05-07T13:45:24;19.70;99.90
16321;DHT22;8269;50.990;4.494;2023-05-07T13:47:51;19.60;99.90
16321;DHT22;8269;50.990;4.494;2023-05-07T13:50:17;19.60;99.90
16321;DHT22;8269;50.990;4.494;2023-05-07T13:52:44;19.60;99.90
16321;DHT22;8269;50.990;4.494;2023-05-07T13:55:20;19.60;99.90
16321;DHT22;8269;50.990;4.494;2023-05-07T13:57:47;19.70;99.90
16321;DHT22;8269;50.990;4.494;2023-05-07T14:00:13;19.70;99.90
16321;DHT22;8269;50.990;4.494;2023-05-07T14:02:39;19.80;99.90
16321;DHT22;8269;50.990;4.494;2023-05-07T14:05:06;19.80;99.90
16321;DHT22;8269;50.990;4.494;2023-05-07T14:07:32;19.80;99.90
16321;DHT22;8269;50.990;4.494;2023-05-07T14:09:58;19.80;99.90
16321;DHT22;8269;50.990;4.494;2023-05-07T14:12:25;20.00;99.90
16321;DHT22;8269;50.990;4.494;2023-05-07T14:14:50;19.90;99.90
16321;DHT22;8269;50.990;4.494;2023-05-07T14:17:17;19.90;99.90
16321;DHT22;8269;50.990;4.494;2023-05-07T14:19:43;19.90;99.90
16321;DHT22;8269;50.990;4.494;2023-05-07T14:22:09;19.90;99.90
16321;DHT22;8269;50.990;4.494;2023-05-07T14:24:35;19.80;99.90
16321;DHT22;8269;50.990;4.494;2023-05-07T14:27:01;19.80;99.90
16321;DHT22;8269;50.990;4.494;2023-05-07T14:29:27;19.80;99.90
16321;DHT22;8269;50.990;4.494;2023-05-07T14:31:53;19.80;99.90
16321;DHT22;8269;50.990;4.494;2023-05-07T14:34:18;19.80;99.90
16321;DHT22;8269;50.990;4.494;2023-05-07T14:36:44;19.90;99.90
16321;DHT22;8269;50.990;4.494;2023-05-07T14:39:10;19.90;99.90
16321;DHT22;8269;50.990;4.494;2023-05-07T14:41:35;19.70;99.90
16321;DHT22;8269;50.990;4.494;2023-05-07T14:44:01;19.70;99.90
16321;DHT22;8269;50.990;4.494;2023-05-07T14:46:29;19.60;99.90
16321;DHT22;8269;50.990;4.494;2023-05-07T14:48:56;19.70;99.90
16321;DHT22;8269;50.990;4.494;2023-05-07T14:51:22;19.80;99.90
16321;DHT22;8269;50.990;4.494;2023-05-07T14:53:50;19.90;99.90
16321;DHT22;8269;50.990;4.494;2023-05-07T14:56:16;19.90;99.90
16321;DHT22;8269;50.990;4.494;2023-05-07T14:58:42;19.90;99.90
16321;DHT22;8269;50.990;4.494;2023-05-07T15:01:08;20.00;99.90
16321;DHT22;8269;50.990;4.494;2023-05-07T15:03:34;20.00;99.90
16321;DHT22;8269;50.990;4.494;2023-05-07T15:06:00;20.00;99.90
16321;DHT22;8269;50.990;4.494;2023-05-07T15:08:25;20.00;99.90
16321;DHT22;8269;50.990;4.494;2023-05-07T15:10:51;20.00;99.90
16321;DHT22;8269;50.990;4.494;2023-05-07T15:13:17;20.00;99.90
16321;DHT22;8269;50.990;4.494;2023-05-07T15:15:44;20.00;99.90
16321;DHT22;8269;50.990;4.494;2023-05-07T15:18:10;19.90;99.90
16321;DHT22;8269;50.990;4.494;2023-05-07T15:20:36;19.80;99.90
16321;DHT22;8269;50.990;4.494;2023-05-07T15:23:02;19.70;99.90
16321;DHT22;8269;50.990;4.494;2023-05-07T15:25:31;19.70;99.90
16321;DHT22;8269;50.990;4.494;2023-05-07T15:27:58;19.70;99.90
16321;DHT22;8269;50.990;4.494;2023-05-07T15:30:24;19.70;99.90
16321;DHT22;8269;50.990;4.494;2023-05-07T15:32:50;19.80;99.90
16321;DHT22;8269;50.990;4.494;2023-05-07T15:35:16;19.80;99.90
16321;DHT22;8269;50.990;4.494;2023-05-07T15:37:43;19.80;99.90
16321;DHT22;8269;50.990;4.494;2023-05-07T15:40:09;19.70;99.90
16321;DHT22;8269;50.990;4.494;2023-05-07T15:42:36;19.70;99.90
16321;DHT22;8269;50.990;4.494;2023-05-07T15:45:01;19.70;99.90
16321;DHT22;8269;50.990;4.494;2023-05-07T15:47:27;19.70;99.90
16321;DHT22;8269;50.990;4.494;2023-05-07T15:49:53;19.70;99.90
16321;DHT22;8269;50.990;4.494;2023-05-07T15:52:18;19.70;99.90
16321;DHT22;8269;50.990;4.494;2023-05-07T15:54:46;19.70;99.90
16321;DHT22;8269;50.990;4.494;2023-05-07T15:57:11;19.70;99.90
16321;DHT22;8269;50.990;4.494;2023-05-07T15:59:37;19.70;99.90
16321;DHT22;8269;50.990;4.494;2023-05-07T16:02:02;19.60;99.90